Sirius — WDA2145 — position and weather

sailwx.info

Track history (hours):
 
Tides and Currents Weather Stations Pressure Air Temp Water Temp Dewpoint Dewpoint Depression Visibility Wind Speed Wind Dir Waves Ship Positions

Sirius

Owner: TISBURY TOWING AND TRANSPORTATION INC, TISBURY, MA. More information available from US FCC via Universal Licensing System and Coast Guard Vessel Documentation Center.

Last reported at 2016-Mar-17 18:33 UTC. Time now 2016-May-05 16:06 UTC.
Position N 42°08' W 070°31'.
Warning: this ship's position is 48 days out of date.

Length 19 m; draft 1.9 m.

Type: Towing. MMSI: 367181040.

Date/timePositionNaut miles runAvg speedWind from/ knotsBaromVisibWave heightAir tempDewpointWater temp
2016-Mar-17 18:33N 42°08' W 070°31'8 8.1
2016-Mar-17 17:33N 42°16' W 070°31'5 5.2
2016-Mar-17 16:34N 42°21' W 070°32'8 8.3
2016-Mar-17 15:34N 42°30' W 070°33'9 8.8
2016-Mar-17 14:34N 42°38' W 070°33'4 3.9
2016-Mar-17 13:33N 42°41' W 070°37'0 0.4
2016-Mar-17 12:34N 42°41' W 070°37'1 0.9
2016-Mar-17 11:34N 42°40' W 070°37'0 0.1
2016-Mar-17 10:33N 42°40' W 070°37'0 0.0
2016-Mar-17 09:33N 42°40' W 070°37'0 0.0
2016-Mar-17 08:33N 42°40' W 070°37'0 0.0
2016-Mar-17 07:33N 42°40' W 070°37'0 0.0
2016-Mar-17 06:33N 42°40' W 070°37'0 0.0
2016-Mar-17 05:33N 42°40' W 070°37'0 0.0
2016-Mar-17 04:33N 42°40' W 070°37'0 0.0
2016-Mar-17 03:33N 42°40' W 070°37'0 0.0
2016-Mar-17 02:33N 42°40' W 070°37'0 0.0
2016-Mar-17 01:33N 42°40' W 070°37'0 0.0
2016-Mar-17 00:33N 42°40' W 070°37'0 0.0
2016-Mar-16 23:33N 42°40' W 070°37'0 0.0
2016-Mar-16 22:33N 42°40' W 070°37'0 0.2
2016-Mar-16 21:34N 42°40' W 070°37'3 2.5
2016-Mar-16 20:33N 42°39' W 070°33'4 4.3
2016-Mar-16 19:33N 42°35' W 070°33'4 4.3
2016-Mar-16 18:33N 42°30' W 070°33'4 4.5
2016-Mar-16 17:34N 42°26' W 070°32'4 4.3
2016-Mar-16 16:33N 42°22' W 070°32'  
Track history (hours):
 
Tides and Currents Weather Stations Pressure Air Temp Water Temp Dewpoint Dewpoint Depression Visibility Wind Speed Wind Dir Waves Ship Positions

Sirius

Owner: TISBURY TOWING AND TRANSPORTATION INC, TISBURY, MA. More information available from US FCC via Universal Licensing System and Coast Guard Vessel Documentation Center.

Last reported at 2016-Mar-17 18:33 UTC. Time now 2016-May-05 16:06 UTC.
Position N 42°08' W 070°31'.
Warning: this ship's position is 48 days out of date.

Length 19 m; draft 1.9 m.

Type: Towing. MMSI: 367181040.

Date/timePositionNaut miles runAvg speedWind from/ knotsBaromVisibWave heightAir tempDewpointWater temp
2016-Mar-17 18:33N 42°08' W 070°31'8 8.1
2016-Mar-17 17:33N 42°16' W 070°31'5 5.2
2016-Mar-17 16:34N 42°21' W 070°32'8 8.3
2016-Mar-17 15:34N 42°30' W 070°33'9 8.8
2016-Mar-17 14:34N 42°38' W 070°33'4 3.9
2016-Mar-17 13:33N 42°41' W 070°37'0 0.4
2016-Mar-17 12:34N 42°41' W 070°37'1 0.9
2016-Mar-17 11:34N 42°40' W 070°37'0 0.1
2016-Mar-17 10:33N 42°40' W 070°37'0 0.0
2016-Mar-17 09:33N 42°40' W 070°37'0 0.0
2016-Mar-17 08:33N 42°40' W 070°37'0 0.0
2016-Mar-17 07:33N 42°40' W 070°37'0 0.0
2016-Mar-17 06:33N 42°40' W 070°37'0 0.0
2016-Mar-17 05:33N 42°40' W 070°37'0 0.0
2016-Mar-17 04:33N 42°40' W 070°37'0 0.0
2016-Mar-17 03:33N 42°40' W 070°37'0 0.0
2016-Mar-17 02:33N 42°40' W 070°37'0 0.0
2016-Mar-17 01:33N 42°40' W 070°37'0 0.0
2016-Mar-17 00:33N 42°40' W 070°37'0 0.0
2016-Mar-16 23:33N 42°40' W 070°37'0 0.0
2016-Mar-16 22:33N 42°40' W 070°37'0 0.2
2016-Mar-16 21:34N 42°40' W 070°37'3 2.5
2016-Mar-16 20:33N 42°39' W 070°33'4 4.3
2016-Mar-16 19:33N 42°35' W 070°33'4 4.3
2016-Mar-16 18:33N 42°30' W 070°33'4 4.5
2016-Mar-16 17:34N 42°26' W 070°32'4 4.3
2016-Mar-16 16:33N 42°22' W 070°32'  

Dump ship's entire track history